createdAt,value
2022-08-12T00:00:36.566Z,3.15
2022-08-12T00:03:23.023Z,2.80
2022-08-12T00:06:10.745Z,3.00
2022-08-12T00:08:58.310Z,2.83
2022-08-12T00:11:45.999Z,2.70
2022-08-12T00:14:32.779Z,2.70
2022-08-12T00:17:18.748Z,2.65
2022-08-12T00:20:05.377Z,3.00
2022-08-12T00:22:59.442Z,2.80
2022-08-12T00:29:03.363Z,2.70
2022-08-12T00:31:49.404Z,2.90
2022-08-12T00:34:36.247Z,2.63
2022-08-12T00:37:23.952Z,2.80
2022-08-12T00:40:10.895Z,2.90
2022-08-12T00:42:42.270Z,2.60
2022-08-12T00:49:50.378Z,2.88
2022-08-12T00:52:20.300Z,2.67
2022-08-12T00:55:00.253Z,3.00
2022-08-12T00:57:37.019Z,2.65
2022-08-12T01:00:11.190Z,2.80
2022-08-12T01:02:43.463Z,2.90
2022-08-12T01:05:34.956Z,2.90
2022-08-12T01:08:21.612Z,2.58
2022-08-12T01:11:08.733Z,3.08
2022-08-12T01:13:42.639Z,2.80
2022-08-12T01:16:12.181Z,2.90
2022-08-12T01:18:42.170Z,3.00
2022-08-12T01:21:27.824Z,2.88
2022-08-12T01:24:58.573Z,2.92
2022-08-12T01:27:28.138Z,2.75
2022-08-12T01:29:58.901Z,2.80
2022-08-12T01:32:29.538Z,2.92
2022-08-12T01:35:07.782Z,2.78
2022-08-12T01:37:52.589Z,2.90
2022-08-12T01:40:33.684Z,2.90
2022-08-12T01:43:11.100Z,2.90
2022-08-12T01:49:16.021Z,2.85
2022-08-12T01:52:16.018Z,2.83
2022-08-12T01:54:47.416Z,2.70
2022-08-12T01:57:57.768Z,2.60
2022-08-12T02:00:16.970Z,2.80
2022-08-12T02:03:28.371Z,2.92
2022-08-12T02:06:34.982Z,2.85
2022-08-12T02:09:23.623Z,2.90
2022-08-12T02:12:31.353Z,2.75
2022-08-12T02:15:17.965Z,2.80
2022-08-12T02:18:48.892Z,2.65
2022-08-12T02:21:52.344Z,2.90
2022-08-12T02:24:22.321Z,2.80
2022-08-12T02:26:51.703Z,2.90
2022-08-12T02:29:20.269Z,2.80
2022-08-12T02:31:48.562Z,2.78
2022-08-12T02:34:17.737Z,2.90
2022-08-12T02:36:46.245Z,2.78
2022-08-12T02:39:17.058Z,2.70
2022-08-12T02:41:47.473Z,2.95
2022-08-12T02:44:18.789Z,2.83
2022-08-12T02:46:49.714Z,2.72
2022-08-12T02:49:30.201Z,2.80
2022-08-12T02:52:00.265Z,2.90
2022-08-12T02:54:28.207Z,2.70
2022-08-12T02:56:55.727Z,2.67
2022-08-12T02:59:26.603Z,2.70
2022-08-12T03:02:06.019Z,2.70
2022-08-12T03:04:48.296Z,2.90
2022-08-12T03:07:31.948Z,2.97
2022-08-12T03:10:17.668Z,3.00
2022-08-12T03:12:49.421Z,15.82
2022-08-12T03:15:24.070Z,4.32
2022-08-12T03:18:26.069Z,4.10
2022-08-12T03:20:58.401Z,7.82
2022-08-12T03:23:31.124Z,14.23
2022-08-12T03:26:02.718Z,15.82
2022-08-12T03:28:53.376Z,14.65
2022-08-12T03:31:33.866Z,31.10
2022-08-12T03:34:12.775Z,7.78
2022-08-12T03:36:42.238Z,4.38
2022-08-12T03:39:18.724Z,3.58
2022-08-12T03:42:28.625Z,8.15
2022-08-12T03:45:52.362Z,6.82
2022-08-12T03:48:39.846Z,33.17
2022-08-12T03:51:26.987Z,55.72
2022-08-12T03:54:13.665Z,22.73
2022-08-12T03:56:59.393Z,16.20
2022-08-12T03:59:45.504Z,8.48
2022-08-12T04:02:16.272Z,4.45
2022-08-12T04:04:47.421Z,3.10
2022-08-12T04:07:17.030Z,3.17
2022-08-12T04:09:46.712Z,3.17
2022-08-12T04:12:33.515Z,3.08
2022-08-12T04:15:02.198Z,3.10
2022-08-12T04:17:30.620Z,3.00
2022-08-12T04:20:00.714Z,2.97
2022-08-12T04:22:30.775Z,3.10
2022-08-12T04:25:01.445Z,3.00
2022-08-12T04:27:32.846Z,2.90
2022-08-12T04:30:21.516Z,2.80
2022-08-12T04:32:51.131Z,3.10
2022-08-12T04:35:19.417Z,2.95
2022-08-12T04:37:58.526Z,3.00
2022-08-12T04:40:32.999Z,3.40
2022-08-12T04:43:02.169Z,3.50
2022-08-12T04:45:32.616Z,3.50
2022-08-12T04:48:02.685Z,3.30
2022-08-12T04:50:35.733Z,2.92
2022-08-12T04:53:09.218Z,3.20
2022-08-12T04:55:39.882Z,3.33
2022-08-12T04:58:08.786Z,3.20
2022-08-12T05:00:38.208Z,3.53
2022-08-12T05:03:07.687Z,3.50
2022-08-12T05:05:37.079Z,3.30
2022-08-12T05:08:08.655Z,3.40
2022-08-12T05:10:36.278Z,3.20
2022-08-12T05:13:11.587Z,3.47
2022-08-12T05:16:02.406Z,3.40
2022-08-12T05:18:29.279Z,3.47
2022-08-12T05:20:59.129Z,3.78
2022-08-12T05:23:27.275Z,3.70
2022-08-12T05:25:57.194Z,3.60
2022-08-12T05:28:27.466Z,3.65
2022-08-12T05:30:57.027Z,3.72
2022-08-12T05:33:26.742Z,4.35
2022-08-12T05:35:54.261Z,4.20
2022-08-12T05:38:40.176Z,4.18
2022-08-12T05:41:19.305Z,3.70
2022-08-12T05:44:08.542Z,4.15
2022-08-12T05:46:37.316Z,3.65
2022-08-12T05:49:06.795Z,3.88
2022-08-12T05:51:40.705Z,3.80
2022-08-12T05:54:10.875Z,4.18
2022-08-12T05:56:38.353Z,4.30
2022-08-12T05:59:07.855Z,4.78
2022-08-12T06:02:12.276Z,4.07
2022-08-12T06:04:23.890Z,3.90
2022-08-12T06:06:53.555Z,3.70
2022-08-12T06:09:22.783Z,4.00
2022-08-12T06:12:04.867Z,3.60
2022-08-12T06:14:36.953Z,3.83
2022-08-12T06:17:06.309Z,3.78
2022-08-12T06:20:25.895Z,3.85
2022-08-12T06:22:21.103Z,3.95
2022-08-12T06:24:49.957Z,3.72
2022-08-12T06:27:19.109Z,3.60
2022-08-12T06:30:10.221Z,3.47
2022-08-12T06:32:34.678Z,3.60
2022-08-12T06:35:24.929Z,3.40
2022-08-12T06:37:57.373Z,3.17
2022-08-12T06:40:44.589Z,3.38
2022-08-12T06:43:13.570Z,3.40
2022-08-12T06:45:47.436Z,2.97
2022-08-12T06:48:14.868Z,3.22
2022-08-12T06:50:44.597Z,3.10
2022-08-12T06:53:12.347Z,3.05
2022-08-12T06:55:57.943Z,3.08
2022-08-12T06:58:30.025Z,3.38
2022-08-12T07:00:58.921Z,3.30
2022-08-12T07:03:28.811Z,3.33
2022-08-12T07:06:03.791Z,3.17
2022-08-12T07:08:35.411Z,3.38
2022-08-12T07:11:09.438Z,3.33
2022-08-12T07:14:11.830Z,2.85
2022-08-12T07:16:52.086Z,2.90
2022-08-12T07:19:20.295Z,3.25
2022-08-12T07:21:59.888Z,3.25
2022-08-12T07:24:30.662Z,3.05
2022-08-12T07:26:58.513Z,3.40
2022-08-12T07:30:02.720Z,2.90
2022-08-12T07:32:13.616Z,3.13
2022-08-12T07:34:42.416Z,3.20
2022-08-12T07:37:09.903Z,3.10
2022-08-12T07:39:37.336Z,3.10
2022-08-12T07:42:19.035Z,2.88
2022-08-12T07:44:47.333Z,3.03
2022-08-12T07:47:19.089Z,3.25
2022-08-12T07:50:03.743Z,3.00
2022-08-12T07:52:47.208Z,2.97
2022-08-12T07:55:16.747Z,3.08
2022-08-12T07:57:59.492Z,3.08
2022-08-12T08:00:34.470Z,3.00
2022-08-12T08:03:02.265Z,3.00
2022-08-12T08:05:40.346Z,3.63
2022-08-12T08:08:15.181Z,3.22
2022-08-12T08:10:42.967Z,2.75
2022-08-12T08:13:12.604Z,2.80
2022-08-12T08:18:29.068Z,3.10
2022-08-12T08:20:57.239Z,2.85
2022-08-12T08:23:46.719Z,2.90
2022-08-12T08:26:24.836Z,3.25
2022-08-12T08:28:53.172Z,3.15
2022-08-12T08:31:21.679Z,3.08
2022-08-12T08:34:05.014Z,3.00
2022-08-12T08:36:37.113Z,2.83
2022-08-12T08:39:04.481Z,3.10
2022-08-12T08:42:16.871Z,2.85
2022-08-12T08:44:38.412Z,2.67
2022-08-12T08:47:08.855Z,2.92
2022-08-12T08:49:37.373Z,2.83
2022-08-12T08:52:10.844Z,2.50
2022-08-12T08:54:38.980Z,2.65
2022-08-12T08:57:08.557Z,2.70
2022-08-12T08:59:36.045Z,2.90
2022-08-12T09:02:03.737Z,3.30
2022-08-12T09:05:11.974Z,2.90
2022-08-12T09:10:32.656Z,2.70
2022-08-12T09:13:23.268Z,2.40
2022-08-12T09:15:59.716Z,2.80
2022-08-12T09:21:15.014Z,2.35
2022-08-12T09:26:38.088Z,2.40
2022-08-12T09:29:15.637Z,2.70
2022-08-12T09:32:03.760Z,2.50
2022-08-12T09:34:33.974Z,2.60
2022-08-12T09:37:19.628Z,2.40
2022-08-12T09:40:06.093Z,2.22
2022-08-12T09:43:17.761Z,2.30
2022-08-12T09:46:19.684Z,2.70
2022-08-12T09:48:39.964Z,2.30
2022-08-12T09:51:22.139Z,2.38
2022-08-12T09:54:08.976Z,2.60
2022-08-12T09:57:00.812Z,2.33
2022-08-12T10:00:13.206Z,2.03
2022-08-12T10:02:44.405Z,2.50
2022-08-12T10:05:13.421Z,2.70
2022-08-12T10:07:45.043Z,2.58
2022-08-12T10:10:24.189Z,2.95
2022-08-12T10:13:33.868Z,2.50
2022-08-12T10:16:05.621Z,2.60
2022-08-12T10:18:37.402Z,2.60
2022-08-12T10:21:19.927Z,2.75
2022-08-12T10:23:56.667Z,2.50
2022-08-12T10:26:44.924Z,2.70
2022-08-12T10:30:37.385Z,2.40
2022-08-12T10:32:45.315Z,2.70
2022-08-12T10:35:09.788Z,2.60
2022-08-12T10:38:38.064Z,2.85
2022-08-12T10:40:31.519Z,2.85
2022-08-12T10:43:18.775Z,2.50
2022-08-12T10:45:49.915Z,2.60
2022-08-12T10:48:33.321Z,2.60
2022-08-12T10:52:04.892Z,2.60
2022-08-12T10:54:00.505Z,2.53
2022-08-12T10:56:34.654Z,2.80
2022-08-12T10:59:05.434Z,2.70
2022-08-12T11:04:20.597Z,2.30
2022-08-12T11:04:41.257Z,2.80
2022-08-12T11:08:36.796Z,2.63
2022-08-12T11:10:01.851Z,2.58
2022-08-12T11:12:56.544Z,2.45
2022-08-12T11:15:33.031Z,2.70
2022-08-12T11:18:18.695Z,2.53
2022-08-12T11:20:48.266Z,2.50
2022-08-12T11:23:25.615Z,2.60
2022-08-12T11:26:07.462Z,2.60
2022-08-12T11:28:37.035Z,2.50
2022-08-12T11:31:09.772Z,2.50
2022-08-12T11:34:06.623Z,2.42
2022-08-12T11:36:29.435Z,2.40
2022-08-12T11:39:01.314Z,2.30
2022-08-12T11:41:33.768Z,2.70
2022-08-12T11:44:35.170Z,2.40
2022-08-12T11:46:53.595Z,2.40
2022-08-12T11:49:31.647Z,2.40
2022-08-12T11:52:02.141Z,2.20
2022-08-12T11:54:30.445Z,2.50
2022-08-12T11:57:02.995Z,2.42
2022-08-12T12:02:36.877Z,2.50
2022-08-12T12:05:05.382Z,2.45
2022-08-12T12:08:36.154Z,2.40
2022-08-12T12:10:21.329Z,2.47
2022-08-12T12:12:49.408Z,2.40
2022-08-12T12:15:24.678Z,2.60
2022-08-12T12:17:55.792Z,2.50
2022-08-12T12:20:27.751Z,2.30
2022-08-12T12:22:58.018Z,2.50
2022-08-12T12:26:06.122Z,2.40
2022-08-12T12:28:08.438Z,2.50
2022-08-12T12:30:55.748Z,2.40
2022-08-12T12:33:23.704Z,2.30
2022-08-12T12:36:18.439Z,2.35
2022-08-12T12:38:38.346Z,2.25
2022-08-12T12:41:16.964Z,2.40
2022-08-12T12:44:04.156Z,2.13
2022-08-12T12:46:32.035Z,2.42
2022-08-12T12:48:59.348Z,2.22
2022-08-12T12:52:02.001Z,2.30
2022-08-12T12:54:14.268Z,2.50
2022-08-12T12:56:49.973Z,2.42
2022-08-12T12:59:54.717Z,2.70
2022-08-12T13:02:08.133Z,2.47
2022-08-12T13:04:37.619Z,2.40
2022-08-12T13:07:06.611Z,2.28
2022-08-12T13:09:36.161Z,2.70
2022-08-12T13:12:09.014Z,2.42
2022-08-12T13:14:41.098Z,2.50
2022-08-12T13:17:14.913Z,2.50
2022-08-12T13:19:48.292Z,2.40
2022-08-12T13:22:21.456Z,2.50
2022-08-12T13:27:35.107Z,2.35
2022-08-12T13:30:17.739Z,2.38
2022-08-12T13:32:57.569Z,2.40
2022-08-12T13:36:05.622Z,2.40
2022-08-12T13:38:39.152Z,2.55
2022-08-12T13:41:31.040Z,2.60
2022-08-12T13:44:05.483Z,2.50
2022-08-12T13:46:33.009Z,2.30
2022-08-12T13:49:00.310Z,2.50
2022-08-12T13:51:41.058Z,2.30
2022-08-12T13:54:11.694Z,2.40
2022-08-12T13:56:41.627Z,2.40
2022-08-12T13:59:20.459Z,2.30
2022-08-12T14:01:52.326Z,2.35
2022-08-12T14:04:24.033Z,2.53
2022-08-12T14:06:54.041Z,2.42
2022-08-12T14:09:21.347Z,2.45
2022-08-12T14:11:58.538Z,2.53
2022-08-12T14:14:28.060Z,2.50
2022-08-12T14:17:02.246Z,2.50
2022-08-12T14:19:37.683Z,2.50
2022-08-12T14:22:13.927Z,2.40
2022-08-12T14:24:42.809Z,2.50
2022-08-12T14:27:12.223Z,2.60
2022-08-12T14:30:04.539Z,2.80
2022-08-12T14:32:36.959Z,2.63
2022-08-12T14:35:09.339Z,2.53
2022-08-12T14:37:57.280Z,2.60
2022-08-12T14:40:30.223Z,2.60
2022-08-12T14:42:59.142Z,2.40
2022-08-12T14:45:45.195Z,2.60
2022-08-12T14:48:18.775Z,2.60
2022-08-12T14:51:02.864Z,2.60
2022-08-12T14:55:00.206Z,2.60
2022-08-12T14:59:56.341Z,2.70
2022-08-12T15:02:19.648Z,2.50
2022-08-12T15:04:54.884Z,2.38
2022-08-12T15:07:34.151Z,2.45
2022-08-12T15:10:10.173Z,2.50
2022-08-12T15:12:40.550Z,2.60
2022-08-12T15:15:10.519Z,2.30
2022-08-12T15:17:39.905Z,2.40
2022-08-12T15:20:32.010Z,2.30
2022-08-12T15:22:58.054Z,2.35
2022-08-12T15:25:27.121Z,2.47
2022-08-12T15:28:05.449Z,2.30
2022-08-12T15:30:37.554Z,2.70
2022-08-12T15:33:12.964Z,2.47
2022-08-12T15:35:50.219Z,2.50
2022-08-12T15:38:24.966Z,2.60
2022-08-12T15:40:53.528Z,2.65
2022-08-12T15:43:50.977Z,2.38
2022-08-12T15:46:15.566Z,2.30
2022-08-12T15:48:47.451Z,2.70
2022-08-12T15:51:57.450Z,2.30
2022-08-12T15:54:33.454Z,2.10
2022-08-12T15:57:08.219Z,2.30
2022-08-12T16:00:02.365Z,2.38
2022-08-12T16:02:29.401Z,2.50
2022-08-12T16:04:57.757Z,2.38
2022-08-12T16:07:30.095Z,2.50
2022-08-12T16:10:05.720Z,2.80
2022-08-12T16:12:55.017Z,2.45
2022-08-12T16:15:29.568Z,2.80
2022-08-12T16:18:20.102Z,2.50
2022-08-12T16:20:48.050Z,2.58
2022-08-12T16:23:26.368Z,2.60
2022-08-12T16:26:05.370Z,2.90
2022-08-12T16:28:41.656Z,2.63
2022-08-12T16:31:15.671Z,2.60
2022-08-12T16:33:59.535Z,2.67
2022-08-12T16:36:31.742Z,2.70
2022-08-12T16:39:01.621Z,2.92
2022-08-12T16:41:39.549Z,2.60
2022-08-12T16:44:09.142Z,2.60
2022-08-12T16:46:38.233Z,2.63
2022-08-12T16:49:08.805Z,2.60
2022-08-12T16:51:41.924Z,2.70
2022-08-12T16:54:15.918Z,2.70
2022-08-12T16:56:55.489Z,2.65
2022-08-12T16:59:52.847Z,2.75
2022-08-12T17:02:31.668Z,2.40
2022-08-12T17:05:05.099Z,2.90
2022-08-12T17:07:38.285Z,2.60
2022-08-12T17:10:18.504Z,2.60
2022-08-12T17:13:09.589Z,2.60
2022-08-12T17:15:57.657Z,3.13
2022-08-12T17:18:43.685Z,2.85
2022-08-12T17:21:19.926Z,2.85
2022-08-12T17:24:01.801Z,2.97
2022-08-12T17:26:30.789Z,3.03
2022-08-12T17:29:00.478Z,2.80
2022-08-12T17:32:01.007Z,2.92
2022-08-12T17:34:38.570Z,2.90
2022-08-12T17:37:07.303Z,2.80
2022-08-12T17:40:12.180Z,3.03
2022-08-12T17:42:32.595Z,3.15
2022-08-12T17:45:17.068Z,2.90
2022-08-12T17:48:00.907Z,3.10
2022-08-12T17:50:32.532Z,3.00
2022-08-12T17:53:02.879Z,3.42
2022-08-12T17:55:43.200Z,3.03
2022-08-12T17:58:17.594Z,3.10
2022-08-12T18:00:46.111Z,3.30
2022-08-12T18:04:04.230Z,3.05
2022-08-12T18:06:14.060Z,3.60
2022-08-12T18:08:55.120Z,3.17
2022-08-12T18:12:05.359Z,3.50
2022-08-12T18:14:31.624Z,3.80
2022-08-12T18:17:01.100Z,3.70
2022-08-12T18:20:03.988Z,3.75
2022-08-12T18:22:22.134Z,3.50
2022-08-12T18:25:05.160Z,4.50
2022-08-12T18:27:35.459Z,3.90
2022-08-12T18:30:13.425Z,4.00
2022-08-12T18:32:59.066Z,3.65
2022-08-12T18:35:46.835Z,4.13
2022-08-12T18:38:22.169Z,4.00
2022-08-12T18:41:10.275Z,4.10
2022-08-12T18:43:58.960Z,4.00
2022-08-12T18:46:53.826Z,3.90
2022-08-12T18:49:38.831Z,4.05
2022-08-12T18:52:12.010Z,4.25
2022-08-12T18:54:48.037Z,4.15
2022-08-12T18:58:00.458Z,4.35
2022-08-12T19:00:18.877Z,4.53
2022-08-12T19:02:53.025Z,4.95
2022-08-12T19:05:24.540Z,4.60
2022-08-12T19:08:12.917Z,4.13
2022-08-12T19:10:50.695Z,4.38
2022-08-12T19:13:39.855Z,4.28
2022-08-12T19:16:11.154Z,4.28
2022-08-12T19:18:44.717Z,4.10
2022-08-12T19:21:17.055Z,4.47
2022-08-12T19:24:08.513Z,4.18
2022-08-12T19:26:37.050Z,4.78
2022-08-12T19:29:08.277Z,4.20
2022-08-12T19:31:55.382Z,4.35
2022-08-12T19:37:38.734Z,4.28
2022-08-12T19:40:31.818Z,4.63
2022-08-12T19:43:18.740Z,4.95
2022-08-12T19:45:53.707Z,4.43
2022-08-12T19:48:24.798Z,4.68
2022-08-12T19:53:27.647Z,4.70
2022-08-12T19:55:57.731Z,5.95
2022-08-12T19:58:26.739Z,4.70
2022-08-12T20:00:55.594Z,5.10
2022-08-12T20:03:38.583Z,5.20
2022-08-12T20:06:11.218Z,4.90
2022-08-12T20:08:47.777Z,4.60
2022-08-12T20:12:11.677Z,4.60
2022-08-12T20:14:07.622Z,5.05
2022-08-12T20:20:05.670Z,4.70
2022-08-12T20:22:30.036Z,5.00
2022-08-12T20:25:08.143Z,4.70
2022-08-12T20:28:02.840Z,4.82
2022-08-12T20:30:52.937Z,4.65
2022-08-12T20:33:18.358Z,5.10
2022-08-12T20:36:13.182Z,4.88
2022-08-12T20:38:39.870Z,5.10
2022-08-12T20:41:17.366Z,5.22
2022-08-12T20:43:51.814Z,5.18
2022-08-12T20:46:21.250Z,4.80
2022-08-12T20:48:54.901Z,5.15
2022-08-12T20:51:27.711Z,4.95
2022-08-12T20:53:59.578Z,5.05
2022-08-12T20:56:37.047Z,4.82
2022-08-12T20:59:10.929Z,4.50
2022-08-12T21:04:34.640Z,5.00
2022-08-12T21:07:08.443Z,5.10
2022-08-12T21:09:49.661Z,5.07
2022-08-12T21:12:28.436Z,4.70
2022-08-12T21:15:16.956Z,5.05
2022-08-12T21:18:11.117Z,5.03
2022-08-12T21:20:52.646Z,5.13
2022-08-12T21:23:21.774Z,5.10
2022-08-12T21:25:53.910Z,5.30
2022-08-12T21:28:31.320Z,4.95
2022-08-12T21:32:34.765Z,5.40
2022-08-12T21:34:08.447Z,5.00
2022-08-12T21:36:43.178Z,4.93
2022-08-12T21:39:35.034Z,4.97
2022-08-12T21:42:06.895Z,5.35
2022-08-12T21:45:44.579Z,5.22
2022-08-12T21:47:24.931Z,5.35
2022-08-12T21:50:06.480Z,5.47
2022-08-12T21:52:43.271Z,5.20
2022-08-12T21:55:18.445Z,5.60
2022-08-12T21:57:54.449Z,5.40
2022-08-12T22:00:32.967Z,5.78
2022-08-12T22:04:01.245Z,5.50
2022-08-12T22:06:26.010Z,5.70
2022-08-12T22:09:05.476Z,5.90
2022-08-12T22:14:18.062Z,5.70
2022-08-12T22:16:52.370Z,5.63
2022-08-12T22:19:21.014Z,5.70
2022-08-12T22:21:55.632Z,5.70
2022-08-12T22:24:29.692Z,5.88
2022-08-12T22:27:14.535Z,5.40
2022-08-12T22:30:17.074Z,5.78
2022-08-12T22:32:49.833Z,5.77
2022-08-12T22:35:55.936Z,6.18
2022-08-12T22:38:25.024Z,5.70
2022-08-12T22:41:00.998Z,5.90
2022-08-12T22:44:00.953Z,5.78
2022-08-12T22:46:53.593Z,5.70
2022-08-12T22:49:49.000Z,5.90
2022-08-12T22:52:18.614Z,6.00
2022-08-12T22:55:03.343Z,5.97
2022-08-12T22:57:53.317Z,6.00
2022-08-12T23:00:24.195Z,6.30
2022-08-12T23:03:02.701Z,6.18
2022-08-12T23:05:57.147Z,6.22
2022-08-12T23:08:30.100Z,6.93
2022-08-12T23:11:00.858Z,6.63
2022-08-12T23:13:47.352Z,6.13
2022-08-12T23:16:27.833Z,6.90
2022-08-12T23:19:22.858Z,7.05
2022-08-12T23:22:04.513Z,6.60
2022-08-12T23:24:53.824Z,7.22
2022-08-12T23:27:50.703Z,6.85
2022-08-12T23:30:31.771Z,6.93
2022-08-12T23:33:13.611Z,7.38
2022-08-12T23:36:02.961Z,7.47
2022-08-12T23:38:32.851Z,6.65
2022-08-12T23:41:06.065Z,6.85
2022-08-12T23:43:40.985Z,6.13
2022-08-12T23:46:19.320Z,6.60
2022-08-12T23:48:51.877Z,6.30
2022-08-12T23:54:32.843Z,6.32
2022-08-12T23:56:59.747Z,6.50
2022-08-12T23:59:43.411Z,6.32
